createdAt,value
2023-09-12T00:02:25.192Z,17.74
2023-09-12T00:07:27.842Z,17.68
2023-09-12T00:12:30.494Z,17.62
2023-09-12T00:17:33.114Z,17.57
2023-09-12T00:22:35.711Z,17.51
2023-09-12T00:27:38.216Z,17.47
2023-09-12T00:32:41.006Z,17.44
2023-09-12T00:37:43.572Z,17.44
2023-09-12T00:42:46.374Z,17.42
2023-09-12T00:47:49.862Z,17.38
2023-09-12T00:52:54.648Z,17.36
2023-09-12T00:57:57.293Z,17.35
2023-09-12T01:03:00.007Z,17.35
2023-09-12T01:08:03.137Z,17.32
2023-09-12T01:13:06.745Z,17.29
2023-09-12T01:18:09.547Z,17.24
2023-09-12T01:23:22.295Z,17.21
2023-09-12T01:28:26.592Z,17.16
2023-09-12T01:33:29.872Z,17.08
2023-09-12T01:38:32.442Z,17.03
2023-09-12T01:43:37.937Z,17.00
2023-09-12T01:48:41.818Z,17.04
2023-09-12T01:53:46.586Z,17.04
2023-09-12T01:58:49.095Z,17.02
2023-09-12T02:03:51.872Z,16.98
2023-09-12T02:08:54.505Z,16.94
2023-09-12T02:13:57.093Z,16.91
2023-09-12T02:18:59.646Z,16.83
2023-09-12T02:24:02.433Z,16.77
2023-09-12T02:29:07.190Z,16.73
2023-09-12T02:34:09.797Z,16.68
2023-09-12T02:39:12.438Z,16.60
2023-09-12T02:44:15.406Z,16.50
2023-09-12T02:49:17.960Z,16.41
2023-09-12T02:54:20.518Z,16.33
2023-09-12T02:59:23.099Z,16.27
2023-09-12T03:04:29.724Z,16.21
2023-09-12T03:09:32.428Z,16.15
2023-09-12T03:14:35.119Z,16.11
2023-09-12T03:19:37.745Z,16.06
2023-09-12T03:24:40.628Z,16.00
2023-09-12T03:29:43.395Z,15.94
2023-09-12T03:34:48.783Z,15.92
2023-09-12T03:39:51.288Z,15.88
2023-09-12T03:44:53.796Z,15.83
2023-09-12T03:49:56.315Z,15.78
2023-09-12T03:55:01.815Z,15.74
2023-09-12T04:00:08.720Z,15.71
2023-09-12T04:05:11.491Z,15.69
2023-09-12T04:10:14.758Z,15.69
2023-09-12T04:15:17.781Z,15.68
2023-09-12T04:20:20.626Z,15.67
2023-09-12T04:25:23.177Z,15.69
2023-09-12T04:30:26.430Z,15.73
2023-09-12T04:35:29.191Z,15.78
2023-09-12T04:40:32.378Z,15.83
2023-09-12T04:45:35.356Z,15.89
2023-09-12T04:50:44.173Z,15.95
2023-09-12T04:55:46.737Z,16.06
2023-09-12T05:00:49.318Z,16.18
2023-09-12T05:05:51.958Z,16.33
2023-09-12T05:10:54.525Z,16.49
2023-09-12T05:16:00.497Z,16.66
2023-09-12T05:21:03.821Z,16.84
2023-09-12T05:26:07.259Z,17.03
2023-09-12T05:31:10.026Z,17.22
2023-09-12T05:36:12.829Z,17.43
2023-09-12T05:41:15.404Z,17.62
2023-09-12T05:46:18.044Z,17.81
2023-09-12T05:51:20.711Z,18.01
2023-09-12T05:56:23.293Z,18.22
2023-09-12T06:01:25.873Z,18.51
2023-09-12T06:06:29.086Z,19.21
2023-09-12T06:11:32.500Z,20.16
2023-09-12T06:16:35.129Z,21.40
2023-09-12T06:21:37.802Z,22.65
2023-09-12T06:26:41.775Z,23.66
2023-09-12T06:31:47.603Z,24.77
2023-09-12T06:36:50.440Z,25.95
2023-09-12T06:41:52.984Z,26.98
2023-09-12T06:46:55.646Z,27.90
2023-09-12T06:51:58.150Z,28.93
2023-09-12T06:57:00.946Z,30.03
2023-09-12T07:02:03.951Z,31.05
2023-09-12T07:07:07.039Z,31.80
2023-09-12T07:12:10.862Z,32.38
2023-09-12T07:17:14.763Z,32.71
2023-09-12T07:22:17.503Z,33.22
2023-09-12T07:27:20.163Z,33.68
2023-09-12T07:32:25.285Z,33.84
2023-09-12T07:37:27.893Z,34.02
2023-09-12T07:42:30.463Z,34.12
2023-09-12T07:47:34.056Z,33.95
2023-09-12T07:52:36.621Z,33.81
2023-09-12T07:57:39.243Z,33.72
2023-09-12T08:02:42.215Z,33.38
2023-09-12T08:07:45.305Z,32.72
2023-09-12T08:12:48.006Z,32.08
2023-09-12T08:17:53.131Z,31.68
2023-09-12T08:22:56.113Z,31.40
2023-09-12T08:27:58.716Z,31.21
2023-09-12T08:33:04.187Z,30.97
2023-09-12T08:38:07.126Z,30.88
2023-09-12T08:43:09.815Z,30.83
2023-09-12T08:48:13.888Z,30.73
2023-09-12T08:53:16.592Z,30.67
2023-09-12T08:58:19.971Z,30.69
2023-09-12T09:03:24.333Z,30.59
2023-09-12T09:08:29.217Z,30.58
2023-09-12T09:13:32.012Z,30.59
2023-09-12T09:18:53.702Z,30.61
2023-09-12T09:23:58.763Z,30.64
2023-09-12T09:29:04.414Z,30.58
2023-09-12T09:34:18.270Z,30.50
2023-09-12T09:39:32.725Z,30.40
2023-09-12T09:44:35.565Z,30.25
2023-09-12T09:49:38.351Z,30.07
2023-09-12T09:54:46.122Z,30.07
2023-09-12T09:59:52.773Z,30.06
2023-09-12T10:05:00.742Z,30.05
2023-09-12T10:10:05.165Z,30.03
2023-09-12T10:15:09.232Z,30.00
2023-09-12T10:20:17.149Z,29.99
2023-09-12T10:25:20.554Z,29.93
2023-09-12T10:30:24.330Z,29.92
2023-09-12T10:35:28.230Z,29.90
2023-09-12T10:40:33.232Z,29.90
2023-09-12T10:45:37.816Z,29.96
2023-09-12T10:50:41.451Z,29.96
2023-09-12T10:56:00.189Z,29.90
2023-09-12T11:01:34.668Z,29.86
2023-09-12T11:06:37.345Z,29.84
2023-09-12T11:11:40.953Z,29.77
2023-09-12T11:16:44.932Z,29.67
2023-09-12T11:21:50.111Z,29.71
2023-09-12T11:27:01.416Z,29.74
2023-09-12T11:32:06.637Z,29.66
2023-09-12T11:37:10.423Z,29.61
2023-09-12T11:42:15.054Z,29.66
2023-09-12T11:47:18.896Z,29.69
2023-09-12T11:52:24.947Z,29.71
2023-09-12T11:57:28.934Z,29.74
2023-09-12T12:02:34.633Z,29.82
2023-09-12T12:07:37.268Z,29.86
2023-09-12T12:12:41.121Z,29.85
2023-09-12T12:17:44.294Z,29.88
2023-09-12T12:22:47.089Z,29.91
2023-09-12T12:27:49.661Z,29.93
2023-09-12T12:32:52.996Z,29.97
2023-09-12T12:38:06.672Z,30.08
2023-09-12T12:43:18.606Z,30.14
2023-09-12T12:48:37.380Z,30.13
2023-09-12T12:53:52.749Z,30.13
2023-09-12T12:58:58.773Z,30.17
2023-09-12T13:04:01.414Z,30.22
2023-09-12T13:09:06.483Z,30.18
2023-09-12T13:14:12.973Z,30.23
2023-09-12T13:19:15.878Z,30.30
2023-09-12T13:24:18.388Z,30.33
2023-09-12T13:29:21.052Z,30.34
2023-09-12T13:34:23.905Z,30.36
2023-09-12T13:39:26.532Z,30.33
2023-09-12T13:44:29.176Z,30.26
2023-09-12T13:49:31.747Z,30.26
2023-09-12T13:54:34.429Z,30.24
2023-09-12T13:59:45.063Z,30.15
2023-09-12T14:09:53.609Z,30.17
2023-09-12T14:15:05.962Z,30.17
2023-09-12T14:20:11.599Z,30.18
2023-09-12T14:25:16.094Z,30.17
2023-09-12T14:30:21.666Z,30.15
2023-09-12T14:35:24.452Z,30.09
2023-09-12T14:40:28.389Z,30.03
2023-09-12T14:45:32.550Z,30.01
2023-09-12T14:50:42.682Z,29.98
2023-09-12T14:55:46.596Z,29.92
2023-09-12T15:00:49.292Z,29.86
2023-09-12T15:05:52.038Z,29.79
2023-09-12T15:10:54.741Z,29.74
2023-09-12T15:15:57.422Z,29.67
2023-09-12T15:21:00.383Z,29.80
2023-09-12T15:26:03.162Z,29.77
2023-09-12T15:31:05.796Z,29.59
2023-09-12T15:36:08.408Z,29.44
2023-09-12T15:41:11.488Z,29.23
2023-09-12T15:46:28.026Z,29.06
2023-09-12T15:51:35.083Z,28.88
2023-09-12T15:56:37.757Z,28.68
2023-09-12T16:01:42.164Z,28.50
2023-09-12T16:06:44.767Z,28.31
2023-09-12T16:11:47.601Z,28.12
2023-09-12T16:16:50.385Z,27.87
2023-09-12T16:21:53.163Z,27.62
2023-09-12T16:26:57.460Z,27.37
2023-09-12T16:32:02.051Z,27.09
2023-09-12T16:37:12.346Z,26.82
2023-09-12T16:42:19.047Z,26.55
2023-09-12T16:47:21.605Z,26.27
2023-09-12T16:52:25.278Z,25.99
2023-09-12T16:57:28.187Z,25.70
2023-09-12T17:02:36.090Z,25.42
2023-09-12T17:07:38.845Z,25.13
2023-09-12T17:12:42.041Z,24.87
2023-09-12T17:17:46.400Z,24.62
2023-09-12T17:22:49.644Z,24.38
2023-09-12T17:27:52.853Z,24.16
2023-09-12T17:32:55.517Z,23.93
2023-09-12T17:37:58.127Z,23.72
2023-09-12T17:43:00.679Z,23.52
2023-09-12T17:48:05.075Z,23.33
2023-09-12T17:53:08.134Z,23.16
2023-09-12T17:58:10.795Z,23.01
2023-09-12T18:03:13.626Z,22.87
2023-09-12T18:08:18.462Z,22.74
2023-09-12T18:13:21.035Z,22.60
2023-09-12T18:18:23.568Z,22.47
2023-09-12T18:23:26.208Z,22.35
2023-09-12T18:28:47.156Z,22.26
2023-09-12T18:33:49.921Z,22.16
2023-09-12T18:38:53.568Z,22.06
2023-09-12T18:43:57.272Z,21.97
2023-09-12T18:48:59.878Z,21.89
2023-09-12T18:54:02.871Z,21.79
2023-09-12T18:59:05.481Z,21.70
2023-09-12T19:04:33.285Z,21.62
2023-09-12T19:09:36.034Z,21.55
2023-09-12T19:14:38.691Z,21.45
2023-09-12T19:19:42.607Z,21.33
2023-09-12T19:24:45.374Z,21.22
2023-09-12T19:29:53.255Z,21.13
2023-09-12T19:34:55.940Z,21.03
2023-09-12T19:39:58.633Z,20.93
2023-09-12T19:45:02.317Z,20.83
2023-09-12T19:50:05.751Z,20.73
2023-09-12T19:55:08.691Z,20.64
2023-09-12T20:00:13.543Z,20.55
2023-09-12T20:05:21.440Z,20.47
2023-09-12T20:10:24.311Z,20.38
2023-09-12T20:15:26.982Z,20.29
2023-09-12T20:20:35.411Z,20.23
2023-09-12T20:25:38.099Z,20.16
2023-09-12T20:30:40.771Z,20.06
2023-09-12T20:35:43.458Z,19.98
2023-09-12T20:40:48.430Z,19.90
2023-09-12T20:45:54.295Z,19.81
2023-09-12T20:50:57.008Z,19.73
2023-09-12T20:55:59.535Z,19.65
2023-09-12T21:01:02.507Z,19.57
2023-09-12T21:06:05.204Z,19.50
2023-09-12T21:11:09.542Z,19.44
2023-09-12T21:16:13.160Z,19.37
2023-09-12T21:21:18.788Z,19.28
2023-09-12T21:26:21.504Z,19.20
2023-09-12T21:31:26.098Z,19.12
2023-09-12T21:36:42.677Z,19.05
2023-09-12T21:41:45.486Z,19.01
2023-09-12T21:46:51.825Z,18.96
2023-09-12T21:51:55.771Z,18.89
2023-09-12T21:57:00.292Z,18.86
2023-09-12T22:02:16.880Z,18.80
2023-09-12T22:07:19.572Z,18.72
2023-09-12T22:12:22.153Z,18.61
2023-09-12T22:17:32.675Z,18.53
2023-09-12T22:22:37.498Z,18.44
2023-09-12T22:27:40.903Z,18.37
2023-09-12T22:32:44.241Z,18.32
2023-09-12T22:37:47.120Z,18.25
2023-09-12T22:42:49.802Z,18.19
2023-09-12T22:47:52.406Z,18.14
2023-09-12T22:52:57.343Z,18.11
2023-09-12T22:58:00.039Z,18.04
2023-09-12T23:03:06.774Z,17.98
2023-09-12T23:08:10.205Z,17.90
2023-09-12T23:13:18.331Z,17.86
2023-09-12T23:18:22.129Z,17.82
2023-09-12T23:23:28.394Z,17.75
2023-09-12T23:28:33.026Z,17.67
2023-09-12T23:33:35.614Z,17.61
2023-09-12T23:38:39.566Z,17.57
2023-09-12T23:43:43.136Z,17.53
2023-09-12T23:48:46.155Z,17.48
2023-09-12T23:53:48.986Z,17.43
2023-09-12T23:58:52.810Z,17.39
